Time;durP1;ratioP1;P1;durP2;ratioP2;P2;SDS_P1;SDS_P2;PMS_P1;PMS_P2;Temp;Humidity;BMP_temperature;BMP_pressure;BME280_temperature;BME280_humidity;BME280_pressure;Samples;Min_cycle;Max_cycle;Signal;HPM_P1;HPM_P2
2023/04/02 00:01:32;;;;;;;9.38;5.10;;;5.20;99.90;;;;;;5003574;28;20130;-72
2023/04/02 00:04:02;;;;;;;10.73;4.38;;;;;;;;;;5001770;28;20041;-73
2023/04/02 00:06:31;;;;;;;11.82;5.40;;;;;;;;;;4997989;28;20585;-73
2023/04/02 00:09:16;;;;;;;7.78;4.85;;;5.20;99.90;;;;;;4996723;28;20491;-73
2023/04/02 00:11:42;;;;;;;8.18;4.22;;;;;;;;;;4993126;28;20099;-72
2023/04/02 00:14:26;;;;;;;9.88;4.80;;;;;;;;;;5025246;28;20037;-73
2023/04/02 00:16:54;;;;;;;8.77;4.97;;;4.90;99.90;;;;;;5005661;28;20053;-73
2023/04/02 00:19:38;;;;;;;8.77;5.13;;;;;;;;;;5007891;28;20118;-73
2023/04/02 00:22:05;;;;;;;7.00;5.40;;;;;;;;;;4998225;28;20492;-72
2023/04/02 00:24:32;;;;;;;9.02;5.20;;;;;;;;;;5015152;28;20041;-72
2023/04/02 00:26:58;;;;;;;6.60;4.93;;;;;;;;;;4998016;28;20037;-72
2023/04/02 00:29:24;;;;;;;10.82;5.63;;;;;;;;;;4999478;28;20071;-72
2023/04/02 00:31:51;;;;;;;8.90;4.82;;;;;;;;;;5015800;28;20081;-74
2023/04/02 00:34:32;;;;;;;7.68;4.97;;;;;;;;;;5014857;28;20048;-73
2023/04/02 00:36:58;;;;;;;8.95;5.38;;;;;;;;;;5011439;28;20092;-75
2023/04/02 00:39:32;;;;;;;10.15;5.63;;;;;;;;;;4993620;28;20048;-72
2023/04/02 00:42:04;;;;;;;6.72;4.85;;;;;;;;;;4998723;28;20058;-74
2023/04/02 00:44:36;;;;;;;9.07;5.20;;;;;;;;;;5012575;28;20046;-73
2023/04/02 00:47:08;;;;;;;9.57;5.53;;;;;;;;;;4993831;28;20487;-72
2023/04/02 00:49:38;;;;;;;7.45;4.90;;;;;;;;;;5019006;28;20061;-73
2023/04/02 00:52:17;;;;;;;6.72;4.55;;;4.50;99.90;;;;;;4997431;28;20046;-73
2023/04/02 00:54:47;;;;;;;8.10;4.75;;;;;;;;;;5015714;28;20144;-74
2023/04/02 00:57:20;;;;;;;7.22;4.53;;;;;;;;;;4999509;28;20061;-72
2023/04/02 01:00:17;;;;;;;9.50;5.07;;;;;;;;;;4989867;28;20058;-73
2023/04/02 01:02:43;;;;;;;10.38;4.97;;;;;;;;;;5010847;28;20045;-72
2023/04/02 01:05:15;;;;;;;11.25;5.47;;;4.60;99.90;;;;;;5012931;28;20041;-73
2023/04/02 01:07:56;;;;;;;8.88;5.53;;;;;;;;;;4990615;28;20104;-72
2023/04/02 01:10:49;;;;;;;10.80;4.82;;;4.40;99.90;;;;;;4988752;28;20130;-72
2023/04/02 01:13:21;;;;;;;10.20;5.88;;;;;;;;;;5015190;28;20622;-72
2023/04/02 01:15:56;;;;;;;9.13;4.80;;;;;;;;;;5001383;28;20088;-72
2023/04/02 01:18:25;;;;;;;;;;;;;;;;;;4993882;28;20573;-73
2023/04/02 01:21:00;;;;;;;8.68;4.55;;;;;;;;;;4990563;28;20298;-72
2023/04/02 01:23:45;;;;;;;10.30;5.13;;;;;;;;;;5004754;28;20522;-72
2023/04/02 01:26:30;;;;;;;8.57;4.70;;;;;;;;;;5004125;28;20054;-72
2023/04/02 01:29:02;;;;;;;9.05;4.65;;;;;;;;;;4988753;28;20516;-72
2023/04/02 01:31:29;;;;;;;7.63;4.20;;;;;;;;;;4988004;28;20050;-72
2023/04/02 01:33:55;;;;;;;9.57;4.82;;;;;;;;;;5020150;28;20041;-72
2023/04/02 01:36:36;;;;;;;7.57;3.53;;;;;;;;;;4990592;28;20077;-73
2023/04/02 01:39:15;;;;;;;7.10;4.47;;;;;;;;;;5001170;28;20377;-72
2023/04/02 01:42:00;;;;;;;9.38;3.70;;;3.90;99.90;;;;;;5012257;28;20045;-73
2023/04/02 01:44:31;;;;;;;5.80;3.90;;;;;;;;;;5007912;28;20400;-73
2023/04/02 01:46:59;;;;;;;6.47;4.20;;;;;;;;;;4997205;28;20647;-72
2023/04/02 01:49:26;;;;;;;8.82;4.07;;;;;;;;;;4998853;28;20049;-72
2023/04/02 01:51:55;;;;;;;7.07;4.05;;;3.60;99.90;;;;;;5012225;28;20041;-72
2023/04/02 01:54:22;;;;;;;7.72;4.00;;;;;;;;;;4995760;28;20034;-72
2023/04/02 01:56:48;;;;;;;8.93;4.00;;;;;;;;;;5001313;28;20116;-72
2023/04/02 01:59:16;;;;;;;7.85;3.78;;;;;;;;;;5000223;28;20053;-75
2023/04/02 02:01:50;;;;;;;7.28;4.22;;;;;;;;;;5004431;28;20072;-72
2023/04/02 02:04:17;;;;;;;6.88;3.85;;;;;;;;;;4992749;28;20052;-72
2023/04/02 02:06:44;;;;;;;11.02;4.18;;;3.20;99.90;;;;;;5001793;28;20076;-72
2023/04/02 02:09:14;;;;;;;5.40;3.70;;;;;;;;;;4990679;28;20096;-74
2023/04/02 02:11:40;;;;;;;7.82;3.88;;;;;;;;;;5015143;28;20049;-72
2023/04/02 02:14:14;;;;;;;9.50;3.85;;;;;;;;;;4999769;28;20054;-72
2023/04/02 02:16:40;;;;;;;6.55;4.47;;;;;;;;;;4981628;28;20041;-72
2023/04/02 02:19:12;;;;;;;8.60;3.28;;;;;;;;;;4998650;28;20129;-72
2023/04/02 02:21:49;;;;;;;7.40;3.90;;;3.10;99.90;;;;;;4998850;28;20478;-72
2023/04/02 02:24:23;;;;;;;8.48;3.65;;;;;;;;;;4992250;28;20050;-74
2023/04/02 02:27:13;;;;;;;9.82;3.65;;;2.30;99.90;;;;;;4994668;28;20088;-72
2023/04/02 02:29:41;;;;;;;8.27;3.30;;;3.00;99.90;;;;;;4992070;28;20508;-72
2023/04/02 02:32:09;;;;;;;7.88;3.40;;;;;;;;;;4993570;28;20092;-73
2023/04/02 02:34:40;;;;;;;7.38;3.40;;;;;;;;;;4991934;28;20037;-72
2023/04/02 02:37:15;;;;;;;8.43;3.38;;;;;;;;;;5008352;28;20046;-72
2023/04/02 02:39:47;;;;;;;6.82;3.42;;;;;;;;;;4990947;28;20488;-72
2023/04/02 02:42:15;;;;;;;6.03;3.72;;;;;;;;;;5016920;28;20152;-72
2023/04/02 02:44:44;;;;;;;4.82;3.10;;;;;;;;;;4996427;28;20050;-72
2023/04/02 02:47:13;;;;;;;8.73;3.50;;;;;;;;;;5014590;28;20419;-72
2023/04/02 02:49:41;;;;;;;6.82;3.20;;;;;;;;;;5013681;28;20132;-73
2023/04/02 02:52:26;;;;;;;7.25;3.30;;;;;;;;;;5004105;28;20095;-72
2023/04/02 02:55:18;;;;;;;5.00;2.95;;;;;;;;;;5003561;28;20042;-72
2023/04/02 02:57:47;;;;;;;11.95;3.70;;;;;;;;;;4992212;28;20551;-72
2023/04/02 03:00:18;;;;;;;8.52;3.35;;;2.50;99.90;;;;;;5000227;28;20535;-72
2023/04/02 03:02:45;;;;;;;7.75;3.15;;;;;;;;;;5000134;28;20045;-73
2023/04/02 03:05:18;;;;;;;6.50;3.75;;;;;;;;;;5015576;28;20052;-74
2023/04/02 03:07:44;;;;;;;6.80;3.33;;;;;;;;;;4991551;28;20060;-72
2023/04/02 03:10:19;;;;;;;4.82;2.72;;;;;;;;;;4995821;28;20054;-72
2023/04/02 03:12:50;;;;;;;5.93;2.95;;;;;;;;;;5016098;28;20038;-72
2023/04/02 03:15:16;;;;;;;4.97;2.92;;;;;;;;;;4993531;28;20052;-72
2023/04/02 03:17:47;;;;;;;4.00;2.80;;;;;;;;;;4992011;28;20439;-73
2023/04/02 03:20:23;;;;;;;7.07;2.85;;;2.40;99.90;;;;;;5001133;28;20069;-73
2023/04/02 03:22:53;;;;;;;6.32;2.88;;;;;;;;;;5012517;28;20498;-72
2023/04/02 03:25:24;;;;;;;6.68;3.38;;;2.30;99.90;;;;;;4994556;28;20123;-72
2023/04/02 03:27:55;;;;;;;7.20;2.60;;;2.00;99.90;;;;;;5007787;28;20041;-72
2023/04/02 03:30:21;;;;;;;3.45;2.42;;;;;;;;;;4977120;28;20054;-72
2023/04/02 03:32:49;;;;;;;6.55;2.45;;;;;;;;;;5016030;28;20052;-73
2023/04/02 03:35:26;;;;;;;5.32;2.55;;;;;;;;;;5015176;28;20065;-72
2023/04/02 03:37:59;;;;;;;7.15;2.40;;;2.00;99.90;;;;;;4999015;28;20049;-73
2023/04/02 03:40:27;;;;;;;4.07;2.40;;;;;;;;;;5005220;28;20100;-72
2023/04/02 03:42:58;;;;;;;5.85;2.40;;;;;;;;;;5006544;28;20068;-74
2023/04/02 03:45:26;;;;;;;5.57;1.92;;;;;;;;;;5000259;28;20053;-72
2023/04/02 03:47:55;;;;;;;6.50;2.80;;;;;;;;;;4994198;28;20073;-74
2023/04/02 03:50:36;;;;;;;7.55;2.70;;;;;;;;;;5018833;28;20037;-72
2023/04/02 03:53:04;;;;;;;8.45;2.03;;;;;;;;;;5002757;28;20759;-73
2023/04/02 03:55:32;;;;;;;4.95;2.67;;;;;;;;;;5014465;28;20049;-72
2023/04/02 03:57:58;;;;;;;8.50;2.47;;;;;;;;;;5011316;28;20118;-72
2023/04/02 04:00:34;;;;;;;6.05;2.40;;;;;;;;;;4991035;28;20047;-73
2023/04/02 04:03:09;;;;;;;5.40;2.40;;;;;;;;;;5017004;28;20492;-72
2023/04/02 04:05:36;;;;;;;6.75;2.25;;;;;;;;;;4998023;28;20121;-72
2023/04/02 04:08:13;;;;;;;5.82;2.30;;;;;;;;;;5002873;28;20053;-71
2023/04/02 04:10:40;;;;;;;9.23;4.93;;;;;;;;;;5003122;28;20056;-72
2023/04/02 04:13:08;;;;;;;6.15;2.30;;;;;;;;;;4998446;28;20049;-71
2023/04/02 04:15:41;;;;;;;6.20;2.58;;;;;;;;;;5000035;28;20041;-72
2023/04/02 04:18:11;;;;;;;6.28;2.53;;;;;;;;;;5015792;28;20053;-72
2023/04/02 04:20:49;;;;;;;7.05;2.50;;;;;;;;;;4990246;28;20049;-72
2023/04/02 04:23:18;;;;;;;6.72;2.65;;;;;;;;;;4999702;28;20041;-71
2023/04/02 04:25:48;;;;;;;9.75;2.25;;;;;;;;;;4999702;28;20045;-72
2023/04/02 04:28:20;;;;;;;5.18;2.40;;;;;;;;;;5023014;28;20053;-72
2023/04/02 04:30:58;;;;;;;4.63;1.92;;;1.70;99.90;;;;;;5002459;28;20045;-72
2023/04/02 04:33:33;;;;;;;5.40;2.03;;;1.90;99.90;;;;;;5019159;28;20041;-72
2023/04/02 04:36:00;;;;;;;5.10;1.58;;;;;;;;;;5009092;28;20053;-72
2023/04/02 04:38:31;;;;;;;6.03;2.03;;;;;;;;;;5005744;28;20061;-72
2023/04/02 04:40:58;;;;;;;5.88;1.50;;;;;;;;;;4994868;28;20484;-71
2023/04/02 04:43:29;;;;;;;4.97;1.90;;;;;;;;;;4994778;28;20080;-72
2023/04/02 04:46:02;;;;;;;4.60;2.03;;;;;;;;;;5001027;28;20045;-72
2023/04/02 04:48:41;;;;;;;2.83;1.73;;;;;;;;;;5002745;28;20048;-72
2023/04/02 04:51:10;;;;;;;4.00;2.20;;;;;;;;;;4997907;28;20077;-72
2023/04/02 04:53:46;;;;;;;5.47;2.00;;;1.40;99.90;;;;;;5000315;28;20400;-71
2023/04/02 04:56:13;;;;;;;4.70;1.98;;;;;;;;;;5000615;28;20128;-72
2023/04/02 04:58:38;;;;;;;4.53;1.90;;;;;;;;;;4990958;28;20077;-74
2023/04/02 05:01:10;;;;;;;3.67;1.70;;;;;;;;;;4990934;28;20080;-72
2023/04/02 05:03:48;;;;;;;7.47;2.40;;;;;;;;;;4991615;28;20384;-72
2023/04/02 05:06:25;;;;;;;5.82;4.07;;;;;;;;;;5011861;28;20046;-72
2023/04/02 05:08:54;;;;;;;11.95;2.22;;;;;;;;;;4994574;28;20057;-72
2023/04/02 05:11:26;;;;;;;3.28;1.63;;;;;;;;;;4977018;28;20112;-72
2023/04/02 05:14:03;;;;;;;5.93;2.30;;;;;;;;;;4999620;28;20049;-72
2023/04/02 05:16:35;;;;;;;7.22;2.60;;;;;;;;;;4990912;28;20056;-72
2023/04/02 05:19:12;;;;;;;3.67;1.60;;;1.70;99.90;;;;;;5018441;28;20053;-72
2023/04/02 05:22:03;;;;;;;5.00;1.83;;;1.40;99.90;;;;;;5018747;28;20041;-73
2023/04/02 05:24:35;;;;;;;4.13;1.98;;;;;;;;;;4984832;28;20056;-72
2023/04/02 05:27:04;;;;;;;9.40;2.50;;;;;;;;;;4994160;28;20038;-72
2023/04/02 05:29:40;;;;;;;6.15;1.73;;;1.60;99.90;;;;;;5005246;28;20088;-71
2023/04/02 05:32:19;;;;;;;5.80;1.92;;;1.60;99.90;;;;;;4990535;28;20496;-71
2023/04/02 05:34:47;;;;;;;6.22;2.30;;;;;;;;;;5022245;28;20037;-72
2023/04/02 05:37:19;;;;;;;7.32;2.15;;;;;;;;;;5024322;28;20884;-71
2023/04/02 05:39:47;;;;;;;4.60;2.00;;;;;;;;;;5008199;28;20470;-72
2023/04/02 05:42:22;;;;;;;5.97;1.75;;;;;;;;;;4993463;28;20578;-72
2023/04/02 05:45:26;;;;;;;6.55;2.60;;;1.80;99.90;;;;;;4989989;28;20049;-72
2023/04/02 05:47:58;;;;;;;8.57;2.42;;;;;;;;;;4995504;28;20419;-72
2023/04/02 05:50:29;;;;;;;3.17;1.80;;;;;;;;;;4997947;28;20511;-72
2023/04/02 05:53:02;;;;;;;5.97;2.05;;;;;;;;;;4996423;28;20042;-72
2023/04/02 05:55:35;;;;;;;3.65;1.60;;;;;;;;;;5019376;28;20045;-71
2023/04/02 05:58:06;;;;;;;8.23;1.90;;;;;;;;;;4997189;28;20100;-71
2023/04/02 06:00:38;;;;;;;4.95;1.58;;;;;;;;;;4998270;28;20041;-71
2023/04/02 06:03:07;;;;;;;3.22;1.92;;;;;;;;;;4998483;28;20749;-71
2023/04/02 06:05:35;;;;;;;8.93;2.53;;;;;;;;;;5004608;28;20081;-72
2023/04/02 06:08:05;;;;;;;5.75;2.05;;;;;;;;;;5012847;28;20046;-71
2023/04/02 06:10:36;;;;;;;3.38;2.00;;;2.20;99.90;;;;;;5004909;28;20123;-71
2023/04/02 06:13:06;;;;;;;8.05;2.40;;;;;;;;;;5014101;28;20033;-72
2023/04/02 06:15:34;;;;;;;5.03;1.83;;;2.80;99.90;;;;;;5014478;28;20515;-72
2023/04/02 06:18:00;;;;;;;7.78;2.30;;;;;;;;;;4992621;28;20184;-74
2023/04/02 06:20:27;;;;;;;4.80;2.25;;;;;;;;;;4990966;28;20045;-73
2023/04/02 06:22:56;;;;;;;4.43;1.80;;;;;;;;;;4997398;28;20033;-72
2023/04/02 06:25:34;;;;;;;6.00;1.90;;;;;;;;;;4991554;28;20135;-72
2023/04/02 06:28:03;;;;;;;5.22;1.88;;;;;;;;;;5000226;28;20132;-73
2023/04/02 06:30:35;;;;;;;5.95;1.52;;;6.10;99.90;;;;;;4994924;28;20053;-72
2023/04/02 06:33:02;;;;;;;6.07;1.85;;;;;;;;;;5007064;28;20052;-73
2023/04/02 06:35:28;;;;;;;5.95;2.00;;;;;;;;;;4991871;28;20673;-72
2023/04/02 06:37:56;;;;;;;4.32;1.70;;;;;;;;;;5008567;28;20048;-71
2023/04/02 06:40:28;;;;;;;5.63;1.98;;;;;;;;;;4991069;28;20161;-73
2023/04/02 06:42:58;;;;;;;6.70;3.10;;;;;;;;;;4992756;28;20530;-69
2023/04/02 06:45:26;;;;;;;5.85;1.60;;;;;;;;;;4994684;28;20492;-71
2023/04/02 06:47:55;;;;;;;6.53;1.92;;;;;;;;;;5008374;28;20058;-73
2023/04/02 06:50:23;;;;;;;5.43;2.00;;;;;;;;;;4992873;28;20069;-74
2023/04/02 06:52:55;;;;;;;5.50;1.52;;;7.00;99.90;;;;;;4989203;28;20140;-73
2023/04/02 06:55:26;;;;;;;6.05;2.00;;;;;;;;;;4985445;28;20050;-75
2023/04/02 06:57:52;;;;;;;4.90;2.40;;;;;;;;;;4988837;28;20045;-73
2023/04/02 07:00:25;;;;;;;5.07;1.95;;;;;;;;;;4986111;28;20414;-73
2023/04/02 07:02:52;;;;;;;5.15;1.80;;;;;;;;;;4997404;28;20046;-74
2023/04/02 07:05:18;;;;;;;8.00;1.90;;;;;;;;;;4991037;28;20369;-71
2023/04/02 07:07:44;;;;;;;3.00;1.80;;;;;;;;;;4994530;28;20053;-71
2023/04/02 07:10:11;;;;;;;5.50;1.70;;;;;;;;;;5008817;28;20172;-71
2023/04/02 07:12:38;;;;;;;6.38;1.55;;;;;;;;;;5012970;28;20049;-71
2023/04/02 07:15:04;;;;;;;3.88;1.73;;;;;;;;;;5002919;28;20068;-71
2023/04/02 07:17:30;;;;;;;3.88;1.67;;;;;;;;;;5022277;28;20042;-73
2023/04/02 07:19:56;;;;;;;2.38;1.27;;;;;;;;;;4991465;28;20389;-73
2023/04/02 07:22:22;;;;;;;7.22;1.83;;;;;;;;;;5016035;28;20063;-72
2023/04/02 07:24:48;;;;;;;6.22;1.67;;;;;;;;;;5003601;28;20120;-72
2023/04/02 07:27:14;;;;;;;4.22;1.63;;;8.60;99.90;;;;;;5000882;28;20152;-72
2023/04/02 07:29:43;;;;;;;6.10;1.52;;;;;;;;;;4995506;28;20113;-72
2023/04/02 07:32:12;;;;;;;4.38;1.85;;;9.00;99.90;;;;;;5007843;28;20069;-73
2023/04/02 07:34:39;;;;;;;3.05;1.40;;;;;;;;;;4995066;28;20440;-72
2023/04/02 07:37:05;;;;;;;3.33;1.60;;;;;;;;;;4996064;28;20041;-71
2023/04/02 07:39:32;;;;;;;3.13;1.50;;;;;;;;;;4991118;28;20046;-73
2023/04/02 07:42:00;;;;;;;4.20;1.80;;;8.50;99.90;;;;;;5011895;28;21132;-73
2023/04/02 07:44:27;;;;;;;3.28;1.50;;;;;;;;;;4993959;28;20037;-75
2023/04/02 07:46:53;;;;;;;4.32;1.38;;;;;;;;;;5002176;28;20053;-73
2023/04/02 07:49:20;;;;;;;4.80;1.48;;;;;;;;;;5011235;28;20056;-73
2023/04/02 07:51:46;;;;;;;5.32;2.03;;;;;;;;;;4996883;28;20049;-72
2023/04/02 07:54:12;;;;;;;2.92;1.48;;;;;;;;;;4994390;28;20050;-72
2023/04/02 07:56:38;;;;;;;6.03;2.20;;;;;;;;;;4993130;28;20052;-72
2023/04/02 07:59:04;;;;;;;3.88;1.65;;;;;;;;;;5007341;28;20050;-72
2023/04/02 08:01:34;;;;;;;6.55;1.60;;;;;;;;;;4993153;28;20048;-72
2023/04/02 08:04:01;;;;;;;2.40;1.30;;;;;;;;;;5017057;28;20077;-72
2023/04/02 08:06:27;;;;;;;5.85;2.40;;;;;;;;;;5004145;28;20052;-72
2023/04/02 08:08:53;;;;;;;4.13;1.40;;;;;;;;;;4991582;28;20439;-72
2023/04/02 08:11:19;;;;;;;3.53;1.60;;;;;;;;;;5011189;28;20133;-71
2023/04/02 08:13:45;;;;;;;6.20;1.83;;;7.80;99.90;;;;;;5017942;28;20045;-71
2023/04/02 08:16:11;;;;;;;3.75;1.90;;;;;;;;;;5014727;28;20060;-73
2023/04/02 08:24:53;;;;;;;5.45;1.65;;;;;;;;;;5139184;23;20049;-74
2023/04/02 08:27:19;;;;;;;3.83;1.80;;;;;;;;;;5008588;28;20042;-72
2023/04/02 08:29:45;;;;;;;6.53;2.00;;;;;;;;;;5013827;28;20045;-74
2023/04/02 08:32:16;;;;;;;3.08;1.45;;;;;;;;;;4993877;28;20711;-72
2023/04/02 08:34:43;;;;;;;4.20;1.50;;;;;;;;;;4993005;28;20121;-72
2023/04/02 08:37:10;;;;;;;5.80;1.92;;;;;;;;;;4994842;28;20037;-73
2023/04/02 08:39:36;;;;;;;3.15;1.83;;;;;;;;;;4996981;28;20421;-72
2023/04/02 08:42:05;;;;;;;6.28;2.30;;;;;;;;;;4998285;28;20049;-73
2023/04/02 08:44:39;;;;;;;6.20;1.85;;;;;;;;;;5005958;28;20789;-71
2023/04/02 08:47:05;;;;;;;2.83;1.67;;;;;;;;;;4999374;28;20084;-72
2023/04/02 08:49:35;;;;;;;3.90;1.80;;;;;;;;;;5007573;28;20128;-70
2023/04/02 08:52:01;;;;;;;7.32;1.73;;;;;;;;;;5004763;28;20053;-73
2023/04/02 08:54:29;;;;;;;6.18;1.70;;;;;;;;;;4999129;28;20514;-72
2023/04/02 08:56:58;;;;;;;3.33;1.80;;;;;;;;;;4992543;28;20046;-73
2023/04/02 08:59:30;;;;;;;4.50;1.70;;;;;;;;;;4991065;28;20046;-72
2023/04/02 09:02:01;;;;;;;5.43;2.00;;;;;;;;;;4991023;28;20056;-72
2023/04/02 09:04:28;;;;;;;5.53;1.85;;;;;;;;;;4994336;28;20123;-72
2023/04/02 09:06:56;;;;;;;3.00;1.80;;;7.10;99.90;;;;;;5007973;28;20042;-73
2023/04/02 09:09:22;;;;;;;3.65;1.45;;;;;;;;;;4955342;28;20472;-73
2023/04/02 09:12:00;;;;;;;2.88;1.67;;;;;;;;;;4960260;28;20039;-73
2023/04/02 09:14:41;;;;;;;4.88;1.73;;;;;;;;;;4956838;28;20100;-71
2023/04/02 09:17:27;;;;;;;4.05;2.00;;;;;;;;;;4957311;28;20043;-72
2023/04/02 09:20:16;;;;;;;4.43;1.73;;;;;;;;;;4960198;28;20050;-72
2023/04/02 09:22:43;;;;;;;4.03;1.88;;;;;;;;;;4952605;28;20576;-72
2023/04/02 09:25:14;;;;;;;9.35;2.03;;;;;;;;;;4964667;28;20477;-73
2023/04/02 09:27:40;;;;;;;4.78;1.92;;;;;;;;;;4982980;28;20401;-74
2023/04/02 09:30:20;;;;;;;4.35;1.58;;;;;;;;;;4950632;28;20130;-72
2023/04/02 09:32:50;;;;;;;3.50;1.60;;;;;;;;;;4979122;28;21446;-73
2023/04/02 09:35:19;;;;;;;3.00;1.63;;;;;;;;;;4964627;28;20050;-72
2023/04/02 09:37:46;;;;;;;3.63;1.55;;;;;;;;;;4977360;28;20075;-73
2023/04/02 09:40:24;;;;;;;5.80;1.70;;;;;;;;;;4953120;28;20046;-73
2023/04/02 09:43:01;;;;;;;5.18;1.80;;;;;;;;;;4962449;28;20042;-73
2023/04/02 09:45:27;;;;;;;4.95;1.70;;;;;;;;;;4980033;28;20042;-73
2023/04/02 09:47:55;;;;;;;4.50;1.60;;;;;;;;;;4954802;28;20133;-74
2023/04/02 09:50:22;;;;;;;6.05;1.80;;;;;;;;;;4957264;28;20054;-75
2023/04/02 09:52:48;;;;;;;4.38;2.10;;;;;;;;;;4955431;28;20512;-73
2023/04/02 09:55:17;;;;;;;4.90;1.70;;;;;;;;;;4954028;28;20408;-74
2023/04/02 09:57:43;;;;;;;2.58;1.42;;;;;;;;;;4954698;28;20082;-72
2023/04/02 10:00:25;;;;;;;4.88;1.88;;;;;;;;;;4957972;28;20061;-75
2023/04/02 10:03:18;;;;;;;3.55;1.70;;;;;;;;;;4959856;28;20756;-73
2023/04/02 10:05:44;;;;;;;4.75;1.70;;;;;;;;;;4935479;28;20114;-77
2023/04/02 10:08:24;;;;;;;6.90;1.70;;;;;;;;;;4949595;28;20054;-72
2023/04/02 10:10:52;;;;;;;3.05;1.60;;;;;;;;;;4981110;28;20065;-73
2023/04/02 10:13:21;;;;;;;3.90;1.50;;;9.20;99.90;;;;;;4968669;28;20121;-72
2023/04/02 10:16:05;;;;;;;3.25;1.45;;;9.20;99.90;;;;;;4958554;28;20049;-73
2023/04/02 10:18:40;;;;;;;2.67;1.63;;;;;;;;;;4970852;28;20061;-72
2023/04/02 10:21:07;;;;;;;4.63;1.60;;;;;;;;;;4955649;28;20046;-72
2023/04/02 10:23:34;;;;;;;3.45;1.60;;;;;;;;;;4961307;28;20074;-72
2023/04/02 10:26:08;;;;;;;4.55;1.60;;;9.40;99.90;;;;;;4957704;28;20090;-72
2023/04/02 10:28:55;;;;;;;4.03;1.77;;;9.50;99.90;;;;;;4950621;28;20061;-77
2023/04/02 10:31:24;;;;;;;2.58;1.80;;;;;;;;;;4961322;28;20748;-75
2023/04/02 10:33:51;;;;;;;3.72;1.67;;;;;;;;;;4955270;28;20054;-73
2023/04/02 10:36:35;;;;;;;5.60;1.88;;;;;;;;;;4964728;28;20054;-72
2023/04/02 10:39:07;;;;;;;4.68;1.52;;;;;;;;;;4955871;28;20047;-75
2023/04/02 10:41:36;;;;;;;5.30;1.80;;;;;;;;;;4973609;28;20053;-74
2023/04/02 10:44:08;;;;;;;3.83;1.70;;;;;;;;;;4981636;28;20042;-75
2023/04/02 10:46:37;;;;;;;4.05;1.67;;;;;;;;;;4966586;28;20594;-74
2023/04/02 10:49:22;;;;;;;5.00;1.50;;;;;;;;;;4956362;28;20134;-73
2023/04/02 10:51:58;;;;;;;3.03;1.35;;;9.40;99.90;;;;;;4969952;28;20085;-74
2023/04/02 10:54:32;;;;;;;4.50;1.50;;;;;;;;;;4963936;28;20042;-73
2023/04/02 10:57:11;;;;;;;4.15;1.50;;;;;;;;;;4963510;28;20042;-72
2023/04/02 10:59:39;;;;;;;7.85;2.22;;;;;;;;;;4957546;28;20416;-74
2023/04/02 11:02:11;;;;;;;2.92;1.60;;;;;;;;;;4955761;28;20054;-73
2023/04/02 11:04:47;;;;;;;5.95;2.58;;;;;;;;;;4959273;28;20043;-72
2023/04/02 11:07:21;;;;;;;3.28;1.63;;;;;;;;;;4958479;28;20059;-75
2023/04/02 11:09:50;;;;;;;5.35;1.73;;;;;;;;;;4979789;28;20097;-73
2023/04/02 11:12:19;;;;;;;5.63;1.73;;;;;;;;;;4960613;28;20497;-73
2023/04/02 11:14:45;;;;;;;4.18;1.52;;;;;;;;;;4967015;28;20059;-74
2023/04/02 11:17:13;;;;;;;7.25;1.50;;;;;;;;;;4963445;28;20064;-75
2023/04/02 11:19:39;;;;;;;4.40;1.70;;;;;;;;;;4978016;28;20075;-74
2023/04/02 11:22:19;;;;;;;2.70;1.83;;;;;;;;;;4974923;28;20870;-72
2023/04/02 11:24:50;;;;;;;7.68;1.52;;;;;;;;;;4959412;28;20508;-76
2023/04/02 11:27:34;;;;;;;2.38;1.13;;;;;;;;;;4960380;28;20046;-75
2023/04/02 11:30:01;;;;;;;3.05;1.60;;;;;;;;;;4962277;28;20050;-76
2023/04/02 11:32:46;;;;;;;6.70;1.90;;;;;;;;;;4957790;28;20047;-75
2023/04/02 11:35:27;;;;;;;5.03;1.65;;;;;;;;;;4975445;28;20058;-76
2023/04/02 11:37:54;;;;;;;2.17;1.40;;;;;;;;;;4958281;28;20061;-76
2023/04/02 11:40:39;;;;;;;3.80;1.67;;;;;;;;;;4947914;28;20133;-75
2023/04/02 11:43:33;;;;;;;8.27;2.10;;;9.20;99.90;;;;;;4958015;28;20046;-74
2023/04/02 11:46:00;;;;;;;6.75;2.20;;;;;;;;;;4957500;28;20046;-74
2023/04/02 11:48:27;;;;;;;3.05;1.27;;;;;;;;;;4954236;28;20043;-78
2023/04/02 11:50:53;;;;;;;2.83;1.50;;;;;;;;;;4952801;28;20152;-75
2023/04/02 11:53:21;;;;;;;4.30;1.60;;;;;;;;;;4949642;28;20555;-75
2023/04/02 11:56:00;;;;;;;3.55;1.27;;;;;;;;;;4962783;28;20045;-75
2023/04/02 11:58:45;;;;;;;2.53;1.63;;;;;;;;;;4955768;28;20470;-75
2023/04/02 12:01:42;;;;;;;4.38;1.52;;;9.50;99.90;;;;;;4958650;28;20535;-75
2023/04/02 12:04:11;;;;;;;3.20;1.50;;;;;;;;;;4966452;28;20397;-74
2023/04/02 12:06:38;;;;;;;3.63;1.50;;;;;;;;;;4961887;28;20078;-75
2023/04/02 12:09:23;;;;;;;2.15;1.30;;;;;;;;;;4953558;28;20042;-75
2023/04/02 12:11:50;;;;;;;2.90;1.23;;;;;;;;;;4968154;28;20049;-74
2023/04/02 12:14:45;;;;;;;3.80;1.38;;;9.50;99.90;;;;;;4962601;28;20051;-76
2023/04/02 12:17:23;;;;;;;3.65;1.40;;;;;;;;;;4958682;28;20051;-75
2023/04/02 12:19:50;;;;;;;3.13;1.30;;;;;;;;;;4961860;28;20042;-72
2023/04/02 12:22:21;;;;;;;2.35;1.27;;;;;;;;;;4963473;28;20555;-72
2023/04/02 12:24:48;;;;;;;3.10;1.50;;;;;;;;;;4961702;28;20109;-73
2023/04/02 12:27:21;;;;;;;4.47;1.30;;;;;;;;;;4970502;28;20093;-72
2023/04/02 12:29:47;;;;;;;3.17;1.17;;;;;;;;;;4962743;28;20838;-72
2023/04/02 12:32:20;;;;;;;2.72;1.20;;;9.60;99.90;;;;;;4958846;28;20051;-73
2023/04/02 12:34:46;;;;;;;1.90;1.20;;;;;;;;;;4976125;28;20133;-72
2023/04/02 12:37:29;;;;;;;5.25;1.60;;;9.40;99.90;;;;;;4960883;28;20055;-72
2023/04/02 12:40:00;;;;;;;3.47;1.20;;;;;;;;;;4949671;28;20374;-72
2023/04/02 12:42:27;;;;;;;3.63;1.40;;;;;;;;;;4958895;28;20058;-72
2023/04/02 12:44:53;;;;;;;3.70;1.13;;;;;;;;;;4959123;28;20043;-74
2023/04/02 12:47:19;;;;;;;2.03;1.20;;;;;;;;;;4968682;28;20050;-74
2023/04/02 12:49:46;;;;;;;3.42;1.58;;;;;;;;;;4955199;28;20046;-73
2023/04/02 12:52:13;;;;;;;3.45;1.33;;;;;;;;;;4957188;28;20133;-72
2023/04/02 12:54:47;;;;;;;4.57;1.83;;;;;;;;;;4961936;28;20073;-73
2023/04/02 12:57:25;;;;;;;2.20;1.15;;;;;;;;;;4964631;28;20050;-72
2023/04/02 12:59:51;;;;;;;2.55;1.30;;;;;;;;;;4954605;28;20051;-72
2023/04/02 13:02:19;;;;;;;2.92;1.20;;;;;;;;;;4984378;28;20042;-74
2023/04/02 13:04:52;;;;;;;4.82;1.90;;;;;;;;;;4949126;28;20101;-73
2023/04/02 13:07:19;;;;;;;3.70;1.90;;;;;;;;;;4961143;28;20488;-74
2023/04/02 13:09:56;;;;;;;2.08;1.27;;;;;;;;;;4961820;28;20093;-73
2023/04/02 13:12:27;;;;;;;1.50;1.00;;;;;;;;;;4953225;28;20096;-74
2023/04/02 13:14:57;;;;;;;4.03;1.30;;;;;;;;;;4971829;28;20489;-74
2023/04/02 13:17:36;;;;;;;4.03;1.27;;;;;;;;;;4952094;28;20053;-74
2023/04/02 13:20:21;;;;;;;2.28;1.20;;;;;;;;;;4961989;28;20503;-73
2023/04/02 13:22:47;;;;;;;3.78;1.40;;;;;;;;;;4952073;28;20042;-75
2023/04/02 13:25:13;;;;;;;2.90;1.55;;;;;;;;;;4974214;28;20053;-74
2023/04/02 13:27:39;;;;;;;3.92;1.13;;;;;;;;;;4947485;28;20568;-74
2023/04/02 13:30:09;;;;;;;1.85;1.20;;;;;;;;;;4981810;28;20420;-73
2023/04/02 13:32:36;;;;;;;3.38;1.17;;;;;;;;;;4979777;28;20043;-72
2023/04/02 13:35:02;;;;;;;6.15;1.45;;;;;;;;;;4980668;28;20128;-71
2023/04/02 13:37:28;;;;;;;2.88;1.38;;;;;;;;;;4982829;28;20057;-72
2023/04/02 13:39:54;;;;;;;4.30;1.45;;;;;;;;;;4969170;28;20039;-72
2023/04/02 13:42:21;;;;;;;2.47;1.35;;;;;;;;;;4983635;28;20049;-71
2023/04/02 13:44:47;;;;;;;1.90;1.27;;;;;;;;;;4962786;28;20718;-72
2023/04/02 13:47:14;;;;;;;1.08;0.95;;;;;;;;;;4957043;28;20129;-73
2023/04/02 13:49:40;;;;;;;1.88;1.10;;;;;;;;;;4972546;28;20101;-72
2023/04/02 13:52:13;;;;;;;5.45;1.67;;;9.90;99.90;;;;;;4957494;28;20046;-72
2023/04/02 13:54:47;;;;;;;4.93;1.45;;;;;;;;;;4949831;28;20050;-73
2023/04/02 13:57:14;;;;;;;2.90;1.63;;;;;;;;;;4979172;28;20046;-72
2023/04/02 13:59:40;;;;;;;5.90;1.63;;;;;;;;;;4950856;28;20046;-73
2023/04/02 14:02:09;;;;;;;3.38;1.60;;;;;;;;;;4960041;28;20049;-72
2023/04/02 14:04:38;;;;;;;4.68;1.75;;;;;;;;;;4964896;28;20571;-72
2023/04/02 14:07:04;;;;;;;4.32;1.45;;;;;;;;;;4960465;28;20125;-73
2023/04/02 14:09:36;;;;;;;3.58;1.52;;;;;;;;;;4966720;28;20049;-72
2023/04/02 14:12:05;;;;;;;4.07;1.30;;;;;;;;;;4958993;28;20046;-73
2023/04/02 14:15:07;;;;;;;3.25;1.45;;;;;;;;;;4967606;28;20050;-72
2023/04/02 14:17:48;;;;;;;2.17;1.25;;;9.70;99.90;;;;;;4893426;29;20145;-72
2023/04/02 14:20:33;;;;;;;2.55;1.65;;;;;;;;;;4966438;28;20058;-71
2023/04/02 14:23:06;;;;;;;3.67;1.40;;;;;;;;;;4963873;28;20086;-71
2023/04/02 14:25:40;;;;;;;4.05;2.00;;;;;;;;;;4952256;28;20093;-71
2023/04/02 14:31:32;;;;;;;4.40;2.03;;;;;;;;;;4975727;28;20049;-71
2023/04/02 14:34:05;;;;;;;4.72;1.67;;;;;;;;;;4955532;28;20050;-72
2023/04/02 14:36:43;;;;;;;4.65;1.50;;;;;;;;;;4956723;28;20046;-72
2023/04/02 14:39:12;;;;;;;4.20;1.95;;;;;;;;;;4949715;28;20077;-72
2023/04/02 14:41:42;;;;;;;4.88;1.40;;;;;;;;;;4958483;28;20053;-73
2023/04/02 14:44:09;;;;;;;2.25;1.30;;;;;;;;;;4961708;28;20050;-73
2023/04/02 14:46:36;;;;;;;4.07;1.25;;;;;;;;;;4961468;28;20709;-75
2023/04/02 14:49:23;;;;;;;3.05;1.00;;;9.70;99.90;;;;;;4954783;28;20050;-73
2023/04/02 14:51:57;;;;;;;3.38;1.30;;;10.00;99.90;;;;;;4959955;28;20081;-72
2023/04/02 14:54:54;;;;;;;3.80;1.42;;;10.00;99.90;;;;;;4963474;28;20054;-73
2023/04/02 14:57:29;;;;;;;3.60;1.40;;;;;;;;;;4982986;28;20579;-72
2023/04/02 15:00:01;;;;;;;;;;;9.90;99.90;;;;;;4950746;28;20082;-73
2023/04/02 15:02:27;;;;;;;2.13;1.40;;;;;;;;;;4960195;28;19934;-72